createdAt,value
2024-01-27T00:01:02.233Z,78787.88
2024-01-27T00:03:29.962Z,78775.88
2024-01-27T00:05:58.086Z,78791.88
2024-01-27T00:08:26.534Z,78799.91
2024-01-27T00:10:54.912Z,78797.91
2024-01-27T00:13:23.271Z,78801.91
2024-01-27T00:15:51.199Z,78791.88
2024-01-27T00:18:18.862Z,78797.91
2024-01-27T00:20:47.175Z,78799.91
2024-01-27T00:23:14.874Z,78807.91
2024-01-27T00:25:42.098Z,78805.91
2024-01-27T00:28:09.545Z,78807.91
2024-01-27T00:30:38.682Z,78803.91
2024-01-27T00:33:06.106Z,78801.91
2024-01-27T00:35:34.420Z,78807.91
2024-01-27T00:38:02.790Z,78811.91
2024-01-27T00:40:30.712Z,78803.91
2024-01-27T00:43:00.333Z,78807.91
2024-01-27T00:45:31.181Z,78803.91
2024-01-27T00:47:59.720Z,78807.91
2024-01-27T00:50:28.471Z,78819.94
2024-01-27T00:52:59.394Z,78827.94
2024-01-27T00:55:30.312Z,78827.94
2024-01-27T00:57:58.377Z,78827.94
2024-01-27T01:00:27.730Z,78827.94
2024-01-27T01:02:56.223Z,78831.94
2024-01-27T01:05:26.039Z,78827.94
2024-01-27T01:07:54.190Z,78825.94
2024-01-27T01:10:23.644Z,78827.94
2024-01-27T01:12:53.162Z,78833.94
2024-01-27T01:15:20.973Z,78823.94
2024-01-27T01:17:51.395Z,78833.94
2024-01-27T01:20:20.200Z,78819.94
2024-01-27T01:22:47.851Z,78821.94
2024-01-27T01:25:15.482Z,78827.94
2024-01-27T01:27:43.732Z,78823.94
2024-01-27T01:30:12.179Z,78829.94
2024-01-27T01:32:40.133Z,78827.94
2024-01-27T01:35:07.660Z,78833.94
2024-01-27T01:37:35.490Z,78835.94
2024-01-27T01:40:04.166Z,78823.94
2024-01-27T01:42:31.756Z,78827.94
2024-01-27T01:44:59.768Z,78839.94
2024-01-27T01:47:27.013Z,78839.94
2024-01-27T01:49:55.006Z,78843.97
2024-01-27T01:52:23.382Z,78841.94
2024-01-27T01:54:51.685Z,78841.94
2024-01-27T01:57:19.413Z,78835.94
2024-01-27T01:59:49.129Z,78843.97
2024-01-27T02:02:17.767Z,78843.97
2024-01-27T02:04:48.140Z,78855.97
2024-01-27T02:07:16.447Z,78855.97
2024-01-27T02:09:45.257Z,78849.97
2024-01-27T02:12:12.338Z,78839.94
2024-01-27T02:14:39.824Z,78847.97
2024-01-27T02:17:08.357Z,78847.97
2024-01-27T02:19:35.868Z,78851.97
2024-01-27T02:22:04.293Z,78857.97
2024-01-27T02:24:32.128Z,78847.97
2024-01-27T02:26:59.790Z,78851.97
2024-01-27T02:29:29.204Z,78859.97
2024-01-27T02:31:57.162Z,78859.97
2024-01-27T02:34:25.201Z,78859.97
2024-01-27T02:36:53.064Z,78857.97
2024-01-27T02:39:20.797Z,78855.97
2024-01-27T02:41:48.325Z,78855.97
2024-01-27T02:44:15.966Z,78870.00
2024-01-27T02:46:45.085Z,78859.97
2024-01-27T02:49:12.172Z,78863.97
2024-01-27T02:51:39.772Z,78863.97
2024-01-27T02:54:08.636Z,78868.00
2024-01-27T02:56:36.570Z,78870.00
2024-01-27T02:59:03.703Z,78868.00
2024-01-27T03:01:31.437Z,78859.97
2024-01-27T03:03:58.994Z,78868.00
2024-01-27T03:06:27.090Z,78868.00
2024-01-27T03:08:55.057Z,78872.00
2024-01-27T03:11:23.113Z,78876.00
2024-01-27T03:13:51.069Z,78865.97
2024-01-27T03:16:21.317Z,78872.00
2024-01-27T03:18:49.692Z,78870.00
2024-01-27T03:21:17.572Z,78884.00
2024-01-27T03:23:45.786Z,78880.00
2024-01-27T03:26:13.415Z,78874.00
2024-01-27T03:28:41.053Z,78872.00
2024-01-27T03:31:09.156Z,78876.00
2024-01-27T03:33:36.494Z,78884.00
2024-01-27T03:36:04.164Z,78888.00
2024-01-27T03:38:31.421Z,78894.03
2024-01-27T03:41:00.742Z,78894.03
2024-01-27T03:43:28.634Z,78892.03
2024-01-27T03:45:56.036Z,78902.03
2024-01-27T03:48:24.056Z,78896.03
2024-01-27T03:50:52.174Z,78892.03
2024-01-27T03:53:21.058Z,78904.03
2024-01-27T03:55:48.783Z,78902.03
2024-01-27T03:58:16.576Z,78904.03
2024-01-27T04:00:46.190Z,78904.03
2024-01-27T04:03:13.966Z,78904.03
2024-01-27T04:05:42.262Z,78926.06
2024-01-27T04:08:10.594Z,78920.06
2024-01-27T04:10:38.879Z,78920.06
2024-01-27T04:13:06.714Z,78924.06
2024-01-27T04:15:39.654Z,78908.03
2024-01-27T04:18:10.296Z,78916.06
2024-01-27T04:20:39.342Z,78924.06
2024-01-27T04:23:06.525Z,78916.06
2024-01-27T04:25:33.884Z,78928.06
2024-01-27T04:28:01.298Z,78922.06
2024-01-27T04:30:29.767Z,78926.06
2024-01-27T04:32:57.856Z,78930.06
2024-01-27T04:35:25.880Z,78936.06
2024-01-27T04:37:54.002Z,78932.06
2024-01-27T04:40:21.599Z,78930.06
2024-01-27T04:42:48.971Z,78936.06
2024-01-27T04:45:16.851Z,78928.06
2024-01-27T04:47:44.122Z,78926.06
2024-01-27T04:50:12.024Z,78936.06
2024-01-27T04:52:40.042Z,78918.06
2024-01-27T04:55:09.405Z,78936.06
2024-01-27T04:57:36.835Z,78932.06
2024-01-27T05:00:11.818Z,78924.06
2024-01-27T05:02:42.192Z,78926.06
2024-01-27T05:05:13.270Z,78936.06
2024-01-27T05:07:40.716Z,78928.06
2024-01-27T05:10:12.689Z,78926.06
2024-01-27T05:12:40.445Z,78932.06
2024-01-27T05:15:10.402Z,78940.09
2024-01-27T05:17:37.767Z,78912.03
2024-01-27T05:20:06.207Z,78920.06
2024-01-27T05:22:37.950Z,78926.06
2024-01-27T05:25:06.703Z,78928.06
2024-01-27T05:27:34.456Z,78924.06
2024-01-27T05:30:01.884Z,78924.06
2024-01-27T05:32:30.506Z,78928.06
2024-01-27T05:34:58.149Z,78918.06
2024-01-27T05:37:25.639Z,78920.06
2024-01-27T05:39:54.633Z,78956.09
2024-01-27T05:42:24.022Z,78932.06
2024-01-27T05:44:51.496Z,78940.09
2024-01-27T05:47:18.512Z,78944.09
2024-01-27T05:49:46.925Z,78934.06
2024-01-27T05:52:24.268Z,78944.09
2024-01-27T05:54:55.800Z,78948.09
2024-01-27T05:57:23.417Z,78946.09
2024-01-27T05:59:50.732Z,78944.09
2024-01-27T06:02:19.418Z,78948.09
2024-01-27T06:04:47.553Z,78944.09
2024-01-27T06:07:15.922Z,78948.09
2024-01-27T06:09:43.854Z,78944.09
2024-01-27T06:12:11.869Z,78946.09
2024-01-27T06:14:39.956Z,78936.06
2024-01-27T06:17:09.526Z,78950.09
2024-01-27T06:19:37.115Z,78956.09
2024-01-27T06:22:06.629Z,78944.09
2024-01-27T06:24:35.389Z,78952.09
2024-01-27T06:27:03.038Z,78960.09
2024-01-27T06:29:30.760Z,78944.09
2024-01-27T06:31:58.437Z,78948.09
2024-01-27T06:34:26.934Z,78960.09
2024-01-27T06:36:54.828Z,78960.09
2024-01-27T06:39:23.725Z,78948.09
2024-01-27T06:41:52.450Z,78958.09
2024-01-27T06:44:20.370Z,78960.09
2024-01-27T06:46:51.652Z,78972.13
2024-01-27T06:49:19.015Z,78972.13
2024-01-27T06:51:47.768Z,78982.13
2024-01-27T06:54:15.247Z,78970.13
2024-01-27T06:56:43.123Z,78972.13
2024-01-27T06:59:11.142Z,78980.13
2024-01-27T07:01:39.053Z,78976.13
2024-01-27T07:04:08.729Z,78972.13
2024-01-27T07:06:36.077Z,78970.13
2024-01-27T07:09:04.778Z,78974.13
2024-01-27T07:11:33.265Z,78976.13
2024-01-27T07:14:01.191Z,78970.13
2024-01-27T07:16:28.362Z,78988.16
2024-01-27T07:18:56.281Z,78976.13
2024-01-27T07:21:24.071Z,78980.13
2024-01-27T07:23:51.482Z,78976.13
2024-01-27T07:26:25.571Z,78988.16
2024-01-27T07:28:57.995Z,78980.13
2024-01-27T07:31:28.816Z,78984.13
2024-01-27T07:33:56.355Z,78980.13
2024-01-27T07:36:23.557Z,78980.13
2024-01-27T07:38:50.368Z,78980.13
2024-01-27T07:41:17.661Z,78988.16
2024-01-27T07:43:45.354Z,79004.16
2024-01-27T07:46:12.430Z,78986.16
2024-01-27T07:48:39.983Z,78992.16
2024-01-27T07:51:07.721Z,78992.16
2024-01-27T07:53:35.135Z,78992.16
2024-01-27T07:56:05.501Z,79016.19
2024-01-27T07:58:35.110Z,79016.19
2024-01-27T08:01:02.830Z,79000.16
2024-01-27T08:03:31.422Z,79004.16
2024-01-27T08:05:59.985Z,79016.19
2024-01-27T08:08:29.198Z,79012.19
2024-01-27T08:10:56.222Z,79022.19
2024-01-27T08:13:24.134Z,79014.19
2024-01-27T08:15:54.527Z,79016.19
2024-01-27T08:18:22.744Z,79020.19
2024-01-27T08:20:51.042Z,79010.19
2024-01-27T08:23:18.537Z,79018.19
2024-01-27T08:25:48.370Z,79022.19
2024-01-27T08:28:15.884Z,79020.19
2024-01-27T08:30:45.234Z,79014.19
2024-01-27T08:33:13.070Z,79020.19
2024-01-27T08:35:42.019Z,79018.19
2024-01-27T08:38:10.673Z,79012.19
2024-01-27T08:40:40.917Z,79026.19
2024-01-27T08:43:11.692Z,79024.19
2024-01-27T08:45:40.277Z,79020.19
2024-01-27T08:48:08.852Z,79024.19
2024-01-27T08:50:36.262Z,79020.19
2024-01-27T08:53:03.532Z,79024.19
2024-01-27T08:55:31.537Z,79020.19
2024-01-27T08:57:59.958Z,79012.19
2024-01-27T09:00:27.481Z,79014.19
2024-01-27T09:02:56.986Z,79018.19
2024-01-27T09:05:24.240Z,79020.19
2024-01-27T09:07:51.389Z,79020.19
2024-01-27T09:10:19.053Z,79012.19
2024-01-27T09:12:46.479Z,79004.16
2024-01-27T09:15:13.911Z,79020.19
2024-01-27T09:17:43.735Z,79008.16
2024-01-27T09:20:11.695Z,79004.16
2024-01-27T09:22:39.187Z,78996.16
2024-01-27T09:25:07.609Z,79004.16
2024-01-27T09:27:35.870Z,78996.16
2024-01-27T09:30:04.559Z,79000.16
2024-01-27T09:32:32.649Z,78998.16
2024-01-27T09:35:01.266Z,78988.16
2024-01-27T09:37:29.247Z,78988.16
2024-01-27T09:39:57.992Z,78980.13
2024-01-27T09:42:25.694Z,78988.16
2024-01-27T09:44:59.046Z,78988.16
2024-01-27T09:47:27.937Z,78996.16
2024-01-27T09:49:55.416Z,78996.16
2024-01-27T09:52:23.455Z,78996.16
2024-01-27T09:54:51.675Z,78990.16
2024-01-27T09:57:22.062Z,78996.16
2024-01-27T09:59:51.197Z,79004.16
2024-01-27T10:02:20.486Z,78998.16
2024-01-27T10:04:49.812Z,79000.16
2024-01-27T10:07:18.540Z,78996.16
2024-01-27T10:09:51.198Z,78998.16
2024-01-27T10:12:24.490Z,79016.19
2024-01-27T10:14:54.116Z,79020.19
2024-01-27T10:17:25.358Z,79016.19
2024-01-27T10:20:11.696Z,79016.19
2024-01-27T10:22:44.573Z,79022.19
2024-01-27T10:25:13.705Z,79012.19
2024-01-27T10:27:41.518Z,79016.19
2024-01-27T10:30:18.093Z,79020.19
2024-01-27T10:32:56.552Z,78996.16
2024-01-27T10:35:25.107Z,79012.19
2024-01-27T10:37:59.463Z,79016.19
2024-01-27T10:40:28.620Z,79008.16
2024-01-27T10:43:07.657Z,79004.16
2024-01-27T10:45:40.905Z,79010.19
2024-01-27T10:48:14.944Z,78996.16
2024-01-27T10:50:46.522Z,79008.16
2024-01-27T10:53:32.740Z,78992.16
2024-01-27T10:56:00.796Z,78996.16
2024-01-27T10:58:31.306Z,79012.19
2024-01-27T11:01:01.262Z,79000.16
2024-01-27T11:03:30.673Z,78996.16
2024-01-27T11:06:00.111Z,79020.19
2024-01-27T11:08:31.424Z,78855.97
2024-01-27T11:11:00.972Z,78888.00
2024-01-27T11:13:35.498Z,78940.09
2024-01-27T11:16:04.185Z,78958.09
2024-01-27T11:18:31.869Z,78960.09
2024-01-27T11:21:01.683Z,78966.13
2024-01-27T11:23:35.679Z,78972.13
2024-01-27T11:26:11.931Z,78964.13
2024-01-27T11:28:42.878Z,78976.13
2024-01-27T11:31:11.883Z,78978.13
2024-01-27T11:33:49.980Z,78968.13
2024-01-27T11:36:26.225Z,78960.09
2024-01-27T11:38:57.369Z,78952.09
2024-01-27T11:41:33.716Z,78952.09
2024-01-27T11:44:04.253Z,78964.13
2024-01-27T11:46:36.187Z,78964.13
2024-01-27T11:49:06.390Z,78900.03
2024-01-27T11:51:36.323Z,78831.94
2024-01-27T11:54:04.349Z,78904.03
2024-01-27T11:56:33.125Z,78928.06
2024-01-27T11:59:00.850Z,78932.06
2024-01-27T12:01:28.487Z,78930.06
2024-01-27T12:03:56.758Z,78926.06
2024-01-27T12:06:25.528Z,78936.06
2024-01-27T12:09:00.493Z,78936.06
2024-01-27T12:11:28.245Z,78936.06
2024-01-27T12:13:57.522Z,78932.06
2024-01-27T12:16:25.039Z,78932.06
2024-01-27T12:18:59.791Z,78928.06
2024-01-27T12:21:28.316Z,78924.06
2024-01-27T12:24:00.491Z,78906.03
2024-01-27T12:26:32.685Z,78912.03
2024-01-27T12:29:01.450Z,78902.03
2024-01-27T12:31:29.121Z,78898.03
2024-01-27T12:34:01.156Z,78908.03
2024-01-27T12:36:28.992Z,78900.03
2024-01-27T12:39:01.854Z,78888.00
2024-01-27T12:41:31.210Z,78896.03
2024-01-27T12:43:59.381Z,78888.00
2024-01-27T12:46:27.950Z,78900.03
2024-01-27T12:48:55.526Z,78900.03
2024-01-27T12:51:23.395Z,78888.00
2024-01-27T12:53:51.266Z,78896.03
2024-01-27T12:56:18.248Z,78884.00
2024-01-27T12:58:46.918Z,78900.03
2024-01-27T13:01:17.354Z,78876.00
2024-01-27T13:03:46.204Z,78870.00
2024-01-27T13:06:15.288Z,78890.00
2024-01-27T13:08:44.070Z,78865.97
2024-01-27T13:11:14.192Z,78755.84
2024-01-27T13:13:43.479Z,78731.81
2024-01-27T13:16:11.101Z,78819.94
2024-01-27T13:18:39.622Z,78823.94
2024-01-27T13:21:07.815Z,78823.94
2024-01-27T13:23:36.659Z,78819.94
2024-01-27T13:26:14.041Z,78815.91
2024-01-27T13:28:47.691Z,78821.94
2024-01-27T13:31:14.844Z,78831.94
2024-01-27T13:33:43.615Z,78819.94
2024-01-27T13:36:11.129Z,78811.91
2024-01-27T13:38:46.358Z,78823.94
2024-01-27T13:41:15.082Z,78823.94
2024-01-27T13:43:44.301Z,78813.91
2024-01-27T13:46:13.319Z,78817.91
2024-01-27T13:48:42.029Z,78811.91
2024-01-27T13:51:11.908Z,78815.91
2024-01-27T13:53:46.589Z,78715.78
2024-01-27T13:56:16.356Z,78753.84
2024-01-27T13:58:45.432Z,78763.84
2024-01-27T14:01:14.759Z,78747.84
2024-01-27T14:03:48.439Z,78755.84
2024-01-27T14:06:16.745Z,78795.91
2024-01-27T14:08:47.499Z,78787.88
2024-01-27T14:11:16.220Z,78783.88
2024-01-27T14:13:45.643Z,78781.88
2024-01-27T14:16:13.485Z,78793.91
2024-01-27T14:18:40.808Z,78815.91
2024-01-27T14:21:08.885Z,78803.91
2024-01-27T14:23:36.879Z,78815.91
2024-01-27T14:26:04.891Z,78793.91
2024-01-27T14:28:32.252Z,78763.84
2024-01-27T14:31:00.805Z,78775.88
2024-01-27T14:33:28.573Z,78767.84
2024-01-27T14:35:56.447Z,78743.81
2024-01-27T14:38:25.010Z,78763.84
2024-01-27T14:40:52.911Z,78765.84
2024-01-27T14:43:20.819Z,78771.88
2024-01-27T14:46:03.555Z,78763.84
2024-01-27T14:48:32.326Z,78747.84
2024-01-27T14:51:00.923Z,78771.88
2024-01-27T14:53:33.093Z,78775.88
2024-01-27T14:56:04.801Z,78773.88
2024-01-27T14:58:33.341Z,78781.88
2024-01-27T15:01:00.951Z,78783.88
2024-01-27T15:03:29.589Z,78795.91
2024-01-27T15:06:00.283Z,78783.88
2024-01-27T15:08:28.124Z,78747.84
2024-01-27T15:10:55.417Z,78727.81
2024-01-27T15:13:25.740Z,78747.84
2024-01-27T15:15:54.561Z,78709.78
2024-01-27T15:18:23.637Z,78699.78
2024-01-27T15:20:55.523Z,78687.75
2024-01-27T15:23:26.289Z,78685.75
2024-01-27T15:25:54.850Z,78689.75
2024-01-27T15:28:22.710Z,78707.78
2024-01-27T15:30:50.770Z,78723.81
2024-01-27T15:33:19.175Z,78739.81
2024-01-27T15:35:48.726Z,78773.88
2024-01-27T15:38:15.937Z,78779.88
2024-01-27T15:40:45.079Z,78787.88
2024-01-27T15:43:13.480Z,78791.88
2024-01-27T15:45:41.921Z,78783.88
2024-01-27T15:48:11.534Z,78791.88
2024-01-27T15:50:40.166Z,78791.88
2024-01-27T15:53:09.540Z,78797.91
2024-01-27T15:55:36.871Z,78811.91
2024-01-27T15:58:04.378Z,78819.94
2024-01-27T16:00:31.578Z,78817.91
2024-01-27T16:02:58.929Z,78801.91
2024-01-27T16:05:26.975Z,78803.91
2024-01-27T16:07:55.062Z,78803.91
2024-01-27T16:10:22.065Z,78809.91
2024-01-27T16:12:49.886Z,78805.91
2024-01-27T16:15:17.506Z,78823.94
2024-01-27T16:17:45.043Z,78827.94
2024-01-27T16:20:13.010Z,78827.94
2024-01-27T16:22:40.415Z,78833.94
2024-01-27T16:25:08.290Z,78827.94
2024-01-27T16:27:36.869Z,78815.91
2024-01-27T16:30:05.061Z,78819.94
2024-01-27T16:32:32.910Z,78821.94
2024-01-27T16:34:59.809Z,78823.94
2024-01-27T16:37:26.639Z,78823.94
2024-01-27T16:39:56.234Z,78711.78
2024-01-27T16:42:23.721Z,78701.78
2024-01-27T16:44:52.174Z,78783.88
2024-01-27T16:47:22.742Z,78803.91
2024-01-27T16:49:50.426Z,78811.91
2024-01-27T16:52:17.497Z,78811.91
2024-01-27T16:54:44.941Z,78827.94
2024-01-27T16:57:12.370Z,78823.94
2024-01-27T16:59:40.600Z,78831.94
2024-01-27T17:02:08.832Z,78829.94
2024-01-27T17:04:36.972Z,78839.94
2024-01-27T17:07:05.101Z,78845.97
2024-01-27T17:09:32.906Z,78831.94
2024-01-27T17:12:00.819Z,78831.94
2024-01-27T17:14:28.533Z,78827.94
2024-01-27T17:16:56.162Z,78835.94
2024-01-27T17:19:24.322Z,78843.97
2024-01-27T17:21:52.467Z,78843.97
2024-01-27T17:24:20.138Z,78847.97
2024-01-27T17:26:47.552Z,78845.97
2024-01-27T17:29:14.846Z,78847.97
2024-01-27T17:31:42.703Z,78851.97
2024-01-27T17:34:10.614Z,78849.97
2024-01-27T17:36:39.215Z,78847.97
2024-01-27T17:39:07.402Z,78847.97
2024-01-27T17:41:35.000Z,78851.97
2024-01-27T17:44:02.488Z,78843.97
2024-01-27T17:46:31.192Z,78847.97
2024-01-27T17:48:58.712Z,78847.97
2024-01-27T17:51:27.406Z,78851.97
2024-01-27T17:53:55.431Z,78855.97
2024-01-27T17:56:24.781Z,78859.97
2024-01-27T17:58:52.667Z,78863.97
2024-01-27T18:01:20.753Z,78876.00
2024-01-27T18:03:48.246Z,78865.97
2024-01-27T18:06:16.050Z,78865.97
2024-01-27T18:08:44.016Z,78863.97
2024-01-27T18:11:11.572Z,78872.00
2024-01-27T18:13:39.031Z,78868.00
2024-01-27T18:16:08.365Z,78870.00
2024-01-27T18:18:35.943Z,78863.97
2024-01-27T18:21:03.063Z,78868.00
2024-01-27T18:23:30.112Z,78868.00
2024-01-27T18:25:57.526Z,78884.00
2024-01-27T18:28:24.618Z,78892.03
2024-01-27T18:30:52.158Z,78888.00
2024-01-27T18:33:20.958Z,78882.00
2024-01-27T18:35:48.440Z,78876.00
2024-01-27T18:38:15.957Z,78882.00
2024-01-27T18:40:44.293Z,78880.00
2024-01-27T18:43:12.023Z,78884.00
2024-01-27T18:45:40.218Z,78880.00
2024-01-27T18:48:08.662Z,78888.00
2024-01-27T18:50:38.055Z,78892.03
2024-01-27T18:53:06.576Z,78892.03
2024-01-27T18:55:38.930Z,78892.03
2024-01-27T18:58:10.270Z,78892.03
2024-01-27T19:00:38.617Z,78888.00
2024-01-27T19:03:08.321Z,78888.00
2024-01-27T19:05:36.643Z,78888.00
2024-01-27T19:08:05.314Z,78884.00
2024-01-27T19:10:33.068Z,78888.00
2024-01-27T19:13:00.560Z,78892.03
2024-01-27T19:15:29.802Z,78892.03
2024-01-27T19:17:57.661Z,78900.03
2024-01-27T19:20:25.785Z,78898.03
2024-01-27T19:22:52.744Z,78904.03
2024-01-27T19:25:20.462Z,78908.03
2024-01-27T19:27:48.301Z,78906.03
2024-01-27T19:30:15.925Z,78904.03
2024-01-27T19:32:44.249Z,78900.03
2024-01-27T19:35:13.223Z,78904.03
2024-01-27T19:37:40.745Z,78908.03
2024-01-27T19:40:10.815Z,78908.03
2024-01-27T19:42:38.362Z,78908.03
2024-01-27T19:45:08.902Z,78912.03
2024-01-27T19:47:36.376Z,78906.03
2024-01-27T19:50:04.337Z,78912.03
2024-01-27T19:52:32.033Z,78914.03
2024-01-27T19:55:01.888Z,78916.06
2024-01-27T19:57:30.762Z,78920.06
2024-01-27T19:59:58.662Z,78918.06
2024-01-27T20:02:27.757Z,78912.03
2024-01-27T20:04:55.495Z,78910.03
2024-01-27T20:07:23.241Z,78914.03
2024-01-27T20:09:50.837Z,78920.06
2024-01-27T20:12:18.302Z,78928.06
2024-01-27T20:14:46.339Z,78916.06
2024-01-27T20:17:14.017Z,78920.06
2024-01-27T20:19:41.440Z,78920.06
2024-01-27T20:22:09.296Z,78912.03
2024-01-27T20:24:36.623Z,78930.06
2024-01-27T20:27:08.114Z,78920.06
2024-01-27T20:29:36.343Z,78920.06
2024-01-27T20:32:06.833Z,78924.06
2024-01-27T20:34:36.559Z,78908.03
2024-01-27T20:37:03.718Z,78922.06
2024-01-27T20:39:32.106Z,78922.06
2024-01-27T20:41:59.884Z,78916.06
2024-01-27T20:44:27.615Z,78918.06
2024-01-27T20:46:54.895Z,78924.06
2024-01-27T20:49:22.348Z,78918.06
2024-01-27T20:51:52.361Z,78922.06
2024-01-27T20:54:19.859Z,78932.06
2024-01-27T20:56:47.446Z,78928.06
2024-01-27T20:59:14.745Z,78930.06
2024-01-27T21:01:42.197Z,78932.06
2024-01-27T21:04:11.947Z,78926.06
2024-01-27T21:06:39.975Z,78936.06
2024-01-27T21:09:08.377Z,78930.06
2024-01-27T21:11:35.671Z,78924.06
2024-01-27T21:14:03.558Z,78924.06
2024-01-27T21:16:33.908Z,78918.06
2024-01-27T21:19:03.024Z,78916.06
2024-01-27T21:21:30.155Z,78922.06
2024-01-27T21:23:57.770Z,78920.06
2024-01-27T21:26:25.323Z,78910.03
2024-01-27T21:28:55.069Z,78906.03
2024-01-27T21:31:22.635Z,78918.06
2024-01-27T21:33:50.978Z,78912.03
2024-01-27T21:36:18.299Z,78906.03
2024-01-27T21:38:46.055Z,78904.03
2024-01-27T21:41:13.455Z,78900.03
2024-01-27T21:43:40.803Z,78898.03
2024-01-27T21:46:09.224Z,78892.03
2024-01-27T21:48:37.652Z,78880.00
2024-01-27T21:51:05.505Z,78884.00
2024-01-27T21:53:34.573Z,78876.00
2024-01-27T21:56:01.798Z,78872.00
2024-01-27T21:58:29.544Z,78861.97
2024-01-27T22:00:57.082Z,78868.00
2024-01-27T22:03:24.414Z,78857.97
2024-01-27T22:05:52.228Z,78851.97
2024-01-27T22:08:19.601Z,78849.97
2024-01-27T22:10:47.557Z,78841.94
2024-01-27T22:13:15.274Z,78835.94
2024-01-27T22:15:43.723Z,78827.94
2024-01-27T22:18:11.525Z,78823.94
2024-01-27T22:20:38.946Z,78823.94
2024-01-27T22:23:06.621Z,78815.91
2024-01-27T22:25:35.173Z,78817.91
2024-01-27T22:28:02.263Z,78819.94
2024-01-27T22:30:30.413Z,78815.91
2024-01-27T22:32:57.933Z,78811.91
2024-01-27T22:35:25.756Z,78817.91
2024-01-27T22:37:52.727Z,78817.91
2024-01-27T22:40:21.847Z,78815.91
2024-01-27T22:42:49.858Z,78805.91
2024-01-27T22:45:17.121Z,78803.91
2024-01-27T22:47:45.926Z,78807.91
2024-01-27T22:50:14.025Z,78799.91
2024-01-27T22:52:42.240Z,78803.91
2024-01-27T22:55:10.081Z,78799.91
2024-01-27T22:57:38.243Z,78805.91
2024-01-27T23:00:13.415Z,78803.91
2024-01-27T23:02:41.392Z,78807.91
2024-01-27T23:05:09.405Z,78813.91
2024-01-27T23:07:38.104Z,78803.91
2024-01-27T23:10:06.136Z,78807.91
2024-01-27T23:12:33.505Z,78807.91
2024-01-27T23:15:00.883Z,78803.91
2024-01-27T23:17:30.200Z,78803.91
2024-01-27T23:19:58.459Z,78803.91
2024-01-27T23:22:25.958Z,78807.91
2024-01-27T23:24:54.506Z,78805.91
2024-01-27T23:27:22.178Z,78809.91
2024-01-27T23:29:51.064Z,78805.91
2024-01-27T23:32:18.356Z,78795.91
2024-01-27T23:34:46.564Z,78803.91
2024-01-27T23:37:14.072Z,78795.91
2024-01-27T23:39:42.407Z,78797.91
2024-01-27T23:42:09.730Z,78799.91
2024-01-27T23:44:36.772Z,78807.91
2024-01-27T23:47:04.106Z,78799.91
2024-01-27T23:49:31.724Z,78799.91
2024-01-27T23:51:59.440Z,78803.91
2024-01-27T23:54:26.666Z,78799.91
2024-01-27T23:56:55.929Z,78807.91
2024-01-27T23:59:23.204Z,78805.91
